Time;durP1;ratioP1;P1;durP2;ratioP2;P2;SDS_P1;SDS_P2;PMS_P1;PMS_P2;Temp;Humidity;BMP_temperature;BMP_pressure;BME280_temperature;BME280_humidity;BME280_pressure;Samples;Min_cycle;Max_cycle;Signal;HPM_P1;HPM_P2
2023/03/18 00:01:10;;;;;;;4.00;3.80;;;14.20;25.70;;;;;;4911801;29;20840;-79
2023/03/18 00:03:38;;;;;;;6.27;3.60;;;14.00;24.30;;;;;;4923592;29;20473;-76
2023/03/18 00:06:09;;;;;;;3.90;3.70;;;14.00;23.40;;;;;;4922280;29;20547;-76
2023/03/18 00:08:38;;;;;;;4.20;4.00;;;14.00;24.20;;;;;;4922134;29;20817;-75
2023/03/18 00:11:09;;;;;;;4.13;3.83;;;13.90;23.50;;;;;;4916700;29;20487;-76
2023/03/18 00:13:38;;;;;;;5.33;3.53;;;13.90;24.10;;;;;;4917575;29;20494;-77
2023/03/18 00:16:07;;;;;;;4.20;4.00;;;13.80;24.70;;;;;;4916131;29;20461;-76
2023/03/18 00:18:36;;;;;;;4.30;4.10;;;13.50;35.80;;;;;;4917656;29;20202;-73
2023/03/18 00:21:05;;;;;;;5.00;4.70;;;13.40;24.20;;;;;;4917702;29;20994;-80
2023/03/18 00:23:34;;;;;;;4.30;3.77;;;13.40;23.50;;;;;;4915444;29;21020;-77
2023/03/18 00:26:02;;;;;;;3.40;3.30;;;13.50;23.50;;;;;;4920766;29;21095;-76
2023/03/18 00:28:32;;;;;;;3.20;3.10;;;13.60;23.80;;;;;;4919295;29;20517;-76
2023/03/18 00:31:07;;;;;;;3.60;3.50;;;13.70;24.20;;;;;;4914469;29;20544;-78
2023/03/18 00:33:37;;;;;;;4.20;4.00;;;13.70;24.90;;;;;;4919076;29;20512;-77
2023/03/18 00:36:08;;;;;;;4.50;4.20;;;13.70;23.60;;;;;;4918298;29;20962;-74
2023/03/18 00:38:37;;;;;;;4.37;4.17;;;13.70;24.30;;;;;;4920968;29;20922;-75
2023/03/18 00:41:10;;;;;;;4.47;4.27;;;13.80;24.10;;;;;;4918524;29;20634;-76
2023/03/18 00:43:45;;;;;;;4.60;4.50;;;13.80;24.60;;;;;;4916867;29;20494;-78
2023/03/18 00:46:16;;;;;;;4.37;4.17;;;13.80;37.60;;;;;;4918202;29;20459;-75
2023/03/18 00:48:45;;;;;;;4.77;4.37;;;13.80;24.60;;;;;;4919064;29;20460;-74
2023/03/18 00:51:16;;;;;;;3.90;3.80;;;13.90;24.50;;;;;;4917453;29;20483;-77
2023/03/18 00:53:46;;;;;;;4.70;4.40;;;13.90;24.90;;;;;;4916274;29;20481;-77
2023/03/18 00:56:15;;;;;;;4.47;4.27;;;13.90;25.10;;;;;;4915206;29;20469;-77
2023/03/18 00:58:45;;;;;;;4.60;4.40;;;13.90;25.60;;;;;;4920627;29;20967;-79
2023/03/18 01:01:14;;;;;;;4.73;4.53;;;13.90;24.90;;;;;;4922042;29;20458;-77
2023/03/18 01:03:43;;;;;;;5.30;4.90;;;13.90;24.60;;;;;;4922478;29;20563;-76
2023/03/18 01:06:13;;;;;;;5.00;4.80;;;13.80;24.60;;;;;;4924456;29;20470;-75
2023/03/18 01:08:41;;;;;;;4.77;4.47;;;13.80;25.40;;;;;;4923693;29;21524;-76
2023/03/18 01:11:10;;;;;;;4.80;4.40;;;13.70;23.90;;;;;;4920774;29;20510;-77
2023/03/18 01:13:39;;;;;;;4.73;4.63;;;13.70;24.30;;;;;;4906290;29;20491;-75
2023/03/18 01:16:09;;;;;;;5.00;4.80;;;13.70;24.50;;;;;;4922379;29;20455;-76
2023/03/18 01:18:39;;;;;;;5.00;4.70;;;13.70;24.80;;;;;;4919136;29;20464;-72
2023/03/18 01:21:09;;;;;;;4.87;4.47;;;13.70;24.10;;;;;;4916268;29;20459;-75
2023/03/18 01:23:38;;;;;;;5.90;5.37;;;13.70;24.30;;;;;;4921342;29;20479;-76
2023/03/18 01:26:06;;;;;;;4.93;4.63;;;13.70;24.30;;;;;;4919840;29;20469;-79
2023/03/18 01:28:34;;;;;;;4.93;4.73;;;13.70;24.00;;;;;;4919834;29;20463;-77
2023/03/18 01:31:03;;;;;;;4.37;4.17;;;13.70;23.50;;;;;;4918212;29;20534;-77
2023/03/18 01:33:34;;;;;;;5.13;4.83;;;13.80;24.40;;;;;;4918941;29;20580;-74
2023/03/18 01:36:03;;;;;;;4.83;4.63;;;13.80;24.10;;;;;;4917959;29;21554;-78
2023/03/18 01:38:32;;;;;;;5.00;4.70;;;13.80;25.00;;;;;;4918036;29;20613;-78
2023/03/18 01:41:01;;;;;;;5.10;4.80;;;13.80;24.30;;;;;;4913644;29;20462;-77
2023/03/18 01:43:32;;;;;;;4.17;3.97;;;13.80;24.60;;;;;;4918786;29;20488;-77
2023/03/18 01:46:22;;;;;;;4.33;4.13;;;13.70;24.60;;;;;;4914742;29;20495;-77
2023/03/18 01:48:52;;;;;;;4.30;4.10;;;13.70;24.90;;;;;;4916498;29;20455;-77
2023/03/18 01:51:20;;;;;;;4.40;4.20;;;13.70;24.50;;;;;;4918062;29;20484;-75
2023/03/18 01:53:50;;;;;;;4.10;3.90;;;13.70;24.10;;;;;;4922327;29;20554;-76
2023/03/18 01:56:19;;;;;;;3.40;3.30;;;13.70;24.50;;;;;;4908142;29;20479;-78
2023/03/18 01:58:52;;;;;;;4.73;3.67;;;13.70;24.20;;;;;;4919129;29;20466;-76
2023/03/18 02:01:26;;;;;;;3.60;3.40;;;13.70;24.40;;;;;;4920710;29;20551;-80
2023/03/18 02:03:56;;;;;;;4.20;4.10;;;13.70;25.10;;;;;;4917727;29;20478;-76
2023/03/18 02:06:25;;;;;;;4.57;4.37;;;13.60;24.40;;;;;;4916707;29;20841;-77
2023/03/18 02:08:54;;;;;;;4.90;4.70;;;13.70;25.20;;;;;;4921927;29;20869;-74
2023/03/18 02:11:23;;;;;;;4.23;4.10;;;13.60;24.30;;;;;;4918390;29;21088;-77
2023/03/18 02:13:51;;;;;;;4.00;3.80;;;13.60;23.90;;;;;;4918055;29;20501;-76
2023/03/18 02:16:24;;;;;;;4.17;3.90;;;13.60;24.60;;;;;;4924766;29;20499;-77
2023/03/18 02:18:59;;;;;;;3.90;3.70;;;13.50;24.10;;;;;;4918504;29;21065;-78
2023/03/18 02:21:41;;;;;;;4.10;3.90;;;13.50;24.10;;;;;;4921005;29;20453;-73
2023/03/18 02:24:17;;;;;;;3.70;3.60;;;13.50;23.80;;;;;;4918868;29;20488;-78
2023/03/18 02:26:51;;;;;;;4.37;4.10;;;13.40;24.50;;;;;;4918427;29;20547;-75
2023/03/18 02:29:22;;;;;;;3.70;3.50;;;13.40;24.50;;;;;;4921895;29;21023;-74
2023/03/18 02:31:52;;;;;;;4.17;4.03;;;13.50;24.80;;;;;;4917762;29;21318;-77
2023/03/18 02:34:23;;;;;;;4.70;4.40;;;13.50;24.80;;;;;;4921889;29;20492;-77
2023/03/18 02:36:52;;;;;;;4.47;4.20;;;13.50;24.40;;;;;;4921322;29;20472;-75
2023/03/18 02:39:22;;;;;;;3.97;3.67;;;13.40;25.10;;;;;;4904124;29;20476;-74
2023/03/18 02:41:50;;;;;;;3.10;3.00;;;13.50;24.80;;;;;;4915919;29;20550;-75
2023/03/18 02:44:19;;;;;;;3.57;3.37;;;13.40;24.10;;;;;;4918652;29;20613;-73
2023/03/18 02:46:54;;;;;;;3.87;3.60;;;13.40;24.70;;;;;;4913884;29;20463;-75
2023/03/18 02:49:25;;;;;;;3.60;3.50;;;13.40;24.80;;;;;;4915687;29;20446;-79
2023/03/18 02:51:53;;;;;;;3.47;3.37;;;13.30;24.60;;;;;;4912300;29;20566;-76
2023/03/18 02:54:23;;;;;;;5.00;3.77;;;13.20;23.70;;;;;;4916418;29;20493;-76
2023/03/18 02:56:52;;;;;;;4.40;4.30;;;13.20;23.90;;;;;;4922133;29;20483;-78
2023/03/18 02:59:21;;;;;;;4.27;3.97;;;13.20;24.70;;;;;;4919482;29;20465;-75
2023/03/18 03:01:52;;;;;;;4.60;4.40;;;13.20;25.90;;;;;;4919286;29;20483;-75
2023/03/18 03:04:22;;;;;;;4.70;4.40;;;13.20;25.20;;;;;;4919878;29;20867;-76
2023/03/18 03:06:51;;;;;;;4.80;4.70;;;13.30;25.10;;;;;;4916988;29;20466;-76
2023/03/18 03:09:21;;;;;;;4.50;4.20;;;13.30;26.60;;;;;;4924320;29;20461;-77
2023/03/18 03:11:50;;;;;;;5.20;5.00;;;13.20;25.20;;;;;;4923790;29;20528;-76
2023/03/18 03:14:18;;;;;;;4.53;4.33;;;13.30;25.80;;;;;;4920709;29;20492;-80
2023/03/18 03:16:47;;;;;;;4.90;4.50;;;13.30;25.20;;;;;;4920395;29;20460;-77
2023/03/18 03:19:16;;;;;;;5.40;4.90;;;13.30;25.50;;;;;;4921052;29;20469;-77
2023/03/18 03:21:44;;;;;;;5.50;5.30;;;13.20;25.10;;;;;;4917896;29;20464;-77
2023/03/18 03:24:13;;;;;;;5.73;5.30;;;13.20;25.90;;;;;;4914559;29;21118;-75
2023/03/18 03:26:41;;;;;;;5.23;5.03;;;13.20;26.40;;;;;;4918749;29;20475;-77
2023/03/18 03:29:11;;;;;;;4.93;4.77;;;13.20;25.80;;;;;;4919931;29;21242;-75
2023/03/18 03:31:39;;;;;;;5.03;4.80;;;13.20;25.60;;;;;;4919286;29;20445;-76
2023/03/18 03:34:07;;;;;;;4.60;4.50;;;13.10;25.10;;;;;;4917618;29;20824;-72
2023/03/18 03:36:37;;;;;;;5.20;5.00;;;13.10;25.40;;;;;;4920612;29;20465;-78
2023/03/18 03:39:06;;;;;;;4.80;4.60;;;13.10;25.30;;;;;;4881324;29;1141818;-77
2023/03/18 03:41:34;;;;;;;4.97;4.80;;;13.10;25.10;;;;;;4915369;29;20467;-76
2023/03/18 03:44:02;;;;;;;4.50;4.30;;;13.10;25.70;;;;;;4920756;29;20479;-77
2023/03/18 03:46:31;;;;;;;5.03;4.73;;;13.00;25.80;;;;;;4919876;29;20515;-75
2023/03/18 03:48:59;;;;;;;5.40;5.20;;;13.00;25.30;;;;;;4919606;29;20488;-78
2023/03/18 03:51:28;;;;;;;5.00;4.90;;;12.90;24.80;;;;;;4924037;29;20468;-80
2023/03/18 03:53:57;;;;;;;6.00;5.30;;;13.00;25.10;;;;;;4921231;29;20491;-77
2023/03/18 03:56:26;;;;;;;4.87;4.77;;;12.90;25.20;;;;;;4918780;29;20465;-74
2023/03/18 03:58:54;;;;;;;4.90;4.70;;;13.00;25.50;;;;;;4917503;29;20465;-77
2023/03/18 04:01:22;;;;;;;4.37;4.27;;;12.90;25.30;;;;;;4918971;29;20455;-72
2023/03/18 04:03:50;;;;;;;5.13;4.77;;;12.90;24.50;;;;;;4920276;29;20901;-77
2023/03/18 04:06:18;;;;;;;4.63;4.53;;;12.80;24.00;;;;;;4919268;29;20503;-80
2023/03/18 04:08:46;;;;;;;5.07;4.87;;;12.80;25.50;;;;;;4916520;29;20516;-77
2023/03/18 04:11:16;;;;;;;5.40;5.00;;;12.80;25.40;;;;;;4915989;29;20499;-74
2023/03/18 04:13:44;;;;;;;4.60;4.43;;;12.80;27.80;;;;;;4921999;29;20497;-77
2023/03/18 04:16:13;;;;;;;4.80;4.70;;;12.80;26.20;;;;;;4914235;29;20833;-77
2023/03/18 04:18:41;;;;;;;5.00;4.80;;;12.80;26.10;;;;;;4916724;29;20449;-79
2023/03/18 04:21:10;;;;;;;4.73;4.63;;;12.80;25.90;;;;;;4917455;29;20464;-77
2023/03/18 04:23:38;;;;;;;5.40;5.20;;;12.80;26.40;;;;;;4915716;29;20539;-79
2023/03/18 04:26:07;;;;;;;5.23;4.93;;;12.80;26.30;;;;;;4914368;29;20458;-74
2023/03/18 04:28:37;;;;;;;5.23;4.93;;;12.70;26.00;;;;;;4915352;29;20502;-75
2023/03/18 04:31:05;;;;;;;4.97;4.77;;;12.70;26.10;;;;;;4912726;29;21335;-82
2023/03/18 04:33:33;;;;;;;5.57;5.17;;;12.60;26.30;;;;;;4919743;29;21061;-73
2023/03/18 04:36:02;;;;;;;5.17;4.97;;;12.60;25.30;;;;;;4922699;29;20481;-75
2023/03/18 04:38:30;;;;;;;5.70;5.40;;;12.60;25.30;;;;;;4920538;29;21262;-76
2023/03/18 04:40:58;;;;;;;5.33;5.13;;;12.50;25.90;;;;;;4925753;29;20474;-80
2023/03/18 04:43:27;;;;;;;5.27;4.97;;;12.50;26.50;;;;;;4919509;29;20503;-77
2023/03/18 04:45:56;;;;;;;5.20;5.10;;;12.30;27.30;;;;;;4919839;29;20512;-77
2023/03/18 04:48:26;;;;;;;5.77;5.13;;;12.10;26.80;;;;;;4920333;29;20539;-75
2023/03/18 04:50:54;;;;;;;5.63;5.43;;;12.00;27.80;;;;;;4921474;29;20492;-78
2023/03/18 04:53:23;;;;;;;4.83;4.63;;;12.20;28.70;;;;;;4921503;29;20540;-75
2023/03/18 04:55:51;;;;;;;5.00;4.80;;;12.20;28.20;;;;;;4923987;29;20505;-72
2023/03/18 04:58:19;;;;;;;5.07;4.93;;;12.40;29.30;;;;;;4926226;29;20549;-75
2023/03/18 05:00:48;;;;;;;4.77;4.67;;;12.40;28.80;;;;;;4920210;29;20468;-80
2023/03/18 05:03:17;;;;;;;5.83;5.63;;;12.50;28.10;;;;;;4920837;29;20484;-77
2023/03/18 05:05:45;;;;;;;4.87;4.57;;;12.40;27.80;;;;;;4920421;29;20501;-77
2023/03/18 05:08:14;;;;;;;5.17;4.87;;;12.40;27.10;;;;;;4919704;29;20994;-78
2023/03/18 05:10:42;;;;;;;4.60;4.30;;;12.40;28.00;;;;;;4921383;29;20465;-77
2023/03/18 05:13:10;;;;;;;4.97;4.77;;;12.50;27.70;;;;;;4923646;29;20544;-76
2023/03/18 05:15:38;;;;;;;4.37;4.17;;;12.50;28.10;;;;;;4922085;29;20969;-75
2023/03/18 05:18:07;;;;;;;4.23;4.03;;;12.50;26.30;;;;;;4922846;29;20522;-75
2023/03/18 05:20:36;;;;;;;3.87;3.77;;;12.50;27.20;;;;;;4920335;29;20467;-72
2023/03/18 05:23:05;;;;;;;4.87;4.57;;;12.40;27.40;;;;;;4918212;29;20490;-78
2023/03/18 05:25:33;;;;;;;3.93;3.73;;;12.40;26.60;;;;;;4918899;29;20472;-78
2023/03/18 05:28:01;;;;;;;4.30;4.10;;;12.40;27.50;;;;;;4918268;29;20545;-77
2023/03/18 05:30:29;;;;;;;3.73;3.53;;;12.40;26.70;;;;;;4920629;29;20460;-73
2023/03/18 05:32:57;;;;;;;4.00;3.70;;;12.30;25.70;;;;;;4917703;29;20475;-74
2023/03/18 05:35:26;;;;;;;3.43;3.27;;;12.20;26.20;;;;;;4916766;29;20472;-77
2023/03/18 05:37:55;;;;;;;3.47;3.33;;;12.30;26.20;;;;;;4917068;29;20471;-76
2023/03/18 05:40:23;;;;;;;4.57;4.03;;;12.20;25.70;;;;;;4919003;29;20536;-76
2023/03/18 05:42:52;;;;;;;4.50;4.10;;;12.20;26.10;;;;;;4916422;29;20494;-77
2023/03/18 05:45:24;;;;;;;4.30;4.20;;;12.20;25.80;;;;;;4918032;29;20508;-72
2023/03/18 05:47:52;;;;;;;4.27;4.17;;;12.10;26.10;;;;;;4905593;29;20533;-76
2023/03/18 05:50:29;;;;;;;5.17;4.97;;;12.00;25.70;;;;;;4922324;29;20467;-76
2023/03/18 05:52:59;;;;;;;4.87;4.77;;;11.90;26.10;;;;;;4920686;29;20485;-77
2023/03/18 05:55:28;;;;;;;5.53;5.23;;;11.80;27.10;;;;;;4920388;29;21037;-78
2023/03/18 05:57:56;;;;;;;4.57;4.23;;;11.70;27.00;;;;;;4921305;29;20523;-79
2023/03/18 06:00:27;;;;;;;4.60;4.37;;;11.60;27.30;;;;;;4922049;29;20449;-77
2023/03/18 06:02:55;;;;;;;5.20;5.10;;;11.60;28.00;;;;;;4921920;29;20492;-77
2023/03/18 06:05:24;;;;;;;5.03;4.80;;;11.70;28.40;;;;;;4924132;29;20453;-77
2023/03/18 06:07:53;;;;;;;5.10;4.80;;;11.60;29.30;;;;;;4925962;29;20461;-76
2023/03/18 06:10:24;;;;;;;6.23;5.83;;;11.60;28.60;;;;;;4923001;29;20453;-76
2023/03/18 06:12:54;;;;;;;5.80;5.60;;;11.60;30.40;;;;;;4914461;29;20449;-77
2023/03/18 06:15:23;;;;;;;6.27;5.87;;;11.30;30.10;;;;;;4917567;29;20244;-75
2023/03/18 06:17:51;;;;;;;6.40;6.07;;;11.30;31.80;;;;;;4921475;29;20465;-75
2023/03/18 06:20:20;;;;;;;5.70;5.60;;;11.40;36.50;;;;;;4925667;29;20467;-77
2023/03/18 06:22:48;;;;;;;5.93;5.50;;;11.30;36.60;;;;;;4932527;29;20470;-79
2023/03/18 06:25:19;;;;;;;6.27;5.97;;;11.30;38.10;;;;;;4931233;29;20456;-77
2023/03/18 06:27:49;;;;;;;5.20;4.93;;;11.30;38.70;;;;;;4932028;29;20458;-78
2023/03/18 06:30:18;;;;;;;5.97;5.57;;;11.20;40.00;;;;;;4927834;29;20514;-78
2023/03/18 06:32:46;;;;;;;6.20;5.90;;;11.20;42.20;;;;;;4926423;29;20485;-78
2023/03/18 06:35:15;;;;;;;6.40;6.10;;;11.30;45.20;;;;;;4920901;29;20555;-75
2023/03/18 06:37:43;;;;;;;6.20;5.80;;;11.40;46.30;;;;;;4916092;29;20463;-75
2023/03/18 06:40:12;;;;;;;6.00;5.80;;;11.40;46.90;;;;;;4919299;29;20998;-77
2023/03/18 06:42:41;;;;;;;6.23;6.03;;;11.40;46.20;;;;;;4919910;29;21005;-76
2023/03/18 06:45:12;;;;;;;6.13;5.93;;;11.30;47.90;;;;;;4915542;29;20455;-82
2023/03/18 06:47:40;;;;;;;6.43;6.23;;;11.40;47.20;;;;;;4917255;29;20513;-77
2023/03/18 06:50:09;;;;;;;6.80;6.30;;;11.50;50.00;;;;;;4925137;29;20492;-78
2023/03/18 06:52:37;;;;;;;6.50;6.20;;;11.60;51.40;;;;;;4919867;29;20509;-77
2023/03/18 06:55:07;;;;;;;6.97;6.57;;;11.60;51.20;;;;;;4915095;29;20491;-75
2023/03/18 06:57:35;;;;;;;5.97;5.77;;;11.70;52.70;;;;;;4928995;29;20458;-76
2023/03/18 07:00:05;;;;;;;6.00;5.80;;;11.80;52.20;;;;;;4927405;29;20466;-78
2023/03/18 07:02:35;;;;;;;6.43;5.90;;;12.00;51.00;;;;;;4926888;29;20582;-75
2023/03/18 07:05:07;;;;;;;6.17;5.87;;;12.30;49.30;;;;;;4912678;29;20504;-75
2023/03/18 07:07:37;;;;;;;6.13;5.83;;;12.50;48.80;;;;;;4929825;29;20463;-77
2023/03/18 07:10:07;;;;;;;6.17;5.97;;;12.70;46.70;;;;;;4925517;29;20479;-75
2023/03/18 07:12:35;;;;;;;5.77;5.47;;;12.80;46.10;;;;;;4927298;29;20480;-76
2023/03/18 07:15:04;;;;;;;6.77;6.17;;;12.90;45.80;;;;;;4930951;29;20538;-75
2023/03/18 07:17:34;;;;;;;5.50;5.30;;;13.00;46.10;;;;;;4925383;29;20515;-77
2023/03/18 07:20:04;;;;;;;6.10;5.90;;;13.20;50.20;;;;;;4918832;29;20613;-77
2023/03/18 07:22:32;;;;;;;6.93;6.53;;;13.40;53.60;;;;;;4919570;29;20488;-77
2023/03/18 07:25:00;;;;;;;6.30;6.00;;;13.60;52.60;;;;;;4918394;29;20483;-79
2023/03/18 07:27:28;;;;;;;6.90;6.60;;;13.90;51.80;;;;;;4923702;29;20468;-79
2023/03/18 07:29:57;;;;;;;6.83;6.50;;;14.10;52.00;;;;;;4918382;29;20977;-79
2023/03/18 07:32:25;;;;;;;6.20;6.00;;;14.30;51.70;;;;;;4919645;29;20981;-79
2023/03/18 07:34:55;;;;;;;6.33;6.03;;;14.30;51.60;;;;;;4920100;29;20488;-75
2023/03/18 07:37:23;;;;;;;7.87;7.20;;;14.30;48.80;;;;;;4918582;29;20920;-75
2023/03/18 07:39:52;;;;;;;7.17;6.63;;;14.40;50.00;;;;;;4917065;29;20484;-75
2023/03/18 07:42:20;;;;;;;6.25;5.95;;;14.60;66.10;;;;;;4916902;29;20452;-77
2023/03/18 07:44:48;;;;;;;6.47;6.00;;;14.60;49.60;;;;;;4917422;29;20200;-81
2023/03/18 07:47:17;;;;;;;6.10;5.87;;;14.90;52.00;;;;;;4921034;29;20992;-79
2023/03/18 07:49:45;;;;;;;6.47;6.17;;;15.00;53.50;;;;;;4923309;29;21175;-79
2023/03/18 07:52:14;;;;;;;6.87;6.57;;;15.10;52.40;;;;;;4920618;29;21064;-82
2023/03/18 07:54:42;;;;;;;5.93;5.63;;;15.10;51.30;;;;;;4920998;29;20512;-77
2023/03/18 07:57:11;;;;;;;7.10;6.70;;;15.30;51.60;;;;;;4921050;29;20982;-77
2023/03/18 07:59:40;;;;;;;6.90;6.60;;;15.40;52.10;;;;;;4917393;29;20459;-78
2023/03/18 08:02:11;;;;;;;6.70;6.40;;;15.70;54.20;;;;;;4920224;29;20284;-79
2023/03/18 08:04:39;;;;;;;6.10;5.90;;;16.00;57.30;;;;;;4916736;29;20470;-78
2023/03/18 08:07:07;;;;;;;5.73;5.50;;;16.40;58.50;;;;;;4920667;29;20459;-77
2023/03/18 08:09:37;;;;;;;5.50;5.30;;;16.60;58.30;;;;;;4920041;29;20458;-78
2023/03/18 08:12:06;;;;;;;5.57;5.47;;;16.90;77.50;;;;;;4919333;29;20461;-78
2023/03/18 08:14:34;;;;;;;7.37;7.07;;;17.20;63.50;;;;;;4918522;29;20490;-76
2023/03/18 08:17:02;;;;;;;6.17;5.83;;;17.50;66.20;;;;;;4920276;29;20475;-79
2023/03/18 08:19:31;;;;;;;6.00;5.70;;;17.80;68.20;;;;;;4916664;29;20474;-79
2023/03/18 08:22:00;;;;;;;6.30;6.10;;;18.00;68.10;;;;;;4921276;29;20447;-75
2023/03/18 08:24:28;;;;;;;4.40;4.30;;;18.30;71.90;;;;;;4919417;29;20485;-74
2023/03/18 08:26:58;;;;;;;4.20;4.00;;;18.80;76.80;;;;;;4921081;29;21043;-80
2023/03/18 08:29:26;;;;;;;5.30;5.10;;;19.10;80.60;;;;;;4915500;29;20464;-77
2023/03/18 08:31:54;;;;;;;4.47;4.27;;;19.30;78.50;;;;;;4916355;29;20479;-79
2023/03/18 08:34:22;;;;;;;4.37;4.27;;;19.40;80.40;;;;;;4918494;29;20608;-78
2023/03/18 08:36:50;;;;;;;6.20;6.00;;;19.70;75.70;;;;;;4919184;29;21020;-79
2023/03/18 08:39:19;;;;;;;6.33;6.13;;;20.00;86.10;;;;;;4917376;29;21001;-79
2023/03/18 08:41:48;;;;;;;6.97;6.70;;;20.30;88.60;;;;;;4918140;29;20854;-78
2023/03/18 08:44:18;;;;;;;6.70;6.37;;;20.70;91.40;;;;;;4913063;29;20492;-75
2023/03/18 08:46:46;;;;;;;7.80;7.50;;;20.80;91.20;;;;;;4913561;29;20449;-79
2023/03/18 08:49:14;;;;;;;6.40;6.20;;;21.30;92.80;;;;;;4914189;29;20453;-78
2023/03/18 08:51:43;;;;;;;7.17;6.90;;;21.30;93.70;;;;;;4917356;29;20448;-79
2023/03/18 08:54:12;;;;;;;5.67;5.43;;;21.60;93.70;;;;;;4923191;29;20489;-82
2023/03/18 08:56:40;;;;;;;5.82;5.53;;;21.50;93.00;;;;;;4924073;29;20536;-75
2023/03/18 08:59:08;;;;;;;4.63;4.43;;;21.70;93.10;;;;;;4922893;29;20206;-82
2023/03/18 09:01:38;;;;;;;4.27;4.07;;;21.80;93.00;;;;;;4921334;29;20456;-81
2023/03/18 09:04:07;;;;;;;5.57;5.23;;;22.10;94.20;;;;;;4913853;29;20485;-77
2023/03/18 09:06:35;;;;;;;4.80;4.60;;;22.40;96.70;;;;;;4911238;29;20575;-79
2023/03/18 09:09:03;;;;;;;4.87;4.67;;;23.00;99.40;;;;;;4920808;29;20458;-80
2023/03/18 09:11:32;;;;;;;5.53;5.20;;;23.20;99.90;;;;;;4917098;29;20524;-79
2023/03/18 09:14:00;;;;;;;5.37;5.27;;;23.40;99.90;;;;;;4915756;29;20481;-76
2023/03/18 09:16:28;;;;;;;5.00;4.80;;;23.50;99.90;;;;;;4915683;29;20653;-80
2023/03/18 09:18:58;;;;;;;5.70;5.30;;;23.70;99.90;;;;;;4922106;29;20861;-85
2023/03/18 09:21:27;;;;;;;4.83;4.73;;;24.30;99.90;;;;;;4905914;29;20468;-84
2023/03/18 09:23:55;;;;;;;4.70;4.50;;;24.50;99.90;;;;;;4926105;29;20472;-82
2023/03/18 09:26:23;;;;;;;5.40;5.20;;;24.70;99.90;;;;;;4922499;29;20467;-86
2023/03/18 09:28:52;;;;;;;5.00;4.80;;;25.60;99.90;;;;;;4919860;29;20467;-81
2023/03/18 09:31:20;;;;;;;8.13;7.53;;;26.30;99.90;;;;;;4921744;29;20459;-84
2023/03/18 09:33:48;;;;;;;4.97;4.87;;;26.80;99.90;;;;;;4919761;29;20485;-83
2023/03/18 09:36:19;;;;;;;4.80;4.60;;;27.20;99.90;;;;;;4921179;29;20557;-85
2023/03/18 09:38:47;;;;;;;4.90;4.70;;;27.80;99.90;;;;;;4919319;29;20462;-88
2023/03/18 09:41:28;;;;;;;4.60;4.50;;;27.90;99.90;;;;;;4919726;29;20461;-85
2023/03/18 09:44:07;;;;;;;4.07;3.97;;;28.40;99.90;;;;;;4922159;29;20480;-85
2023/03/18 09:46:47;;;;;;;4.43;4.23;;;28.40;99.90;;;;;;4919758;29;20549;-86
2023/03/18 09:49:48;;;;;;;3.70;3.50;;;27.20;99.90;;;;;;4923495;29;20527;-84
2023/03/18 09:52:23;;;;;;;3.40;3.20;;;27.60;99.90;;;;;;4922107;29;20463;-83
2023/03/18 09:54:57;;;;;;;3.80;3.70;;;27.90;99.90;;;;;;4926944;29;20490;-83
2023/03/18 09:57:30;;;;;;;3.20;3.10;;;28.30;99.90;;;;;;4925781;29;20481;-85
2023/03/18 10:00:03;;;;;;;3.27;3.17;;;28.60;99.90;;;;;;4926296;29;20561;-83
2023/03/18 10:02:38;;;;;;;3.70;3.60;;;28.50;99.90;;;;;;4922286;29;20485;-84
2023/03/18 10:05:12;;;;;;;3.00;2.90;;;28.50;99.90;;;;;;4925572;29;20472;-82
2023/03/18 10:07:43;;;;;;;3.60;3.40;;;28.60;99.90;;;;;;4925152;29;20456;-84
2023/03/18 10:10:20;;;;;;;3.37;3.27;;;28.50;99.90;;;;;;4908559;29;20880;-82
2023/03/18 10:12:57;;;;;;;3.87;3.50;;;27.90;99.90;;;;;;4926840;29;20499;-82
2023/03/18 10:15:32;;;;;;;3.20;3.10;;;27.20;99.90;;;;;;4918626;29;21057;-81
2023/03/18 10:18:10;;;;;;;3.80;3.50;;;26.70;99.90;;;;;;4922082;29;20503;-82
2023/03/18 10:20:51;;;;;;;4.37;4.27;;;26.30;99.90;;;;;;4920060;29;20461;-78
2023/03/18 10:23:31;;;;;;;4.20;3.90;;;26.10;99.90;;;;;;4925080;29;20536;-80
2023/03/18 10:26:06;;;;;;;3.80;3.50;;;26.00;99.90;;;;;;4920466;29;20458;-82
2023/03/18 10:28:56;;;;;;;3.73;3.53;;;26.40;99.90;;;;;;4920424;29;20492;-82
2023/03/18 10:31:36;;;;;;;3.33;3.17;;;26.90;99.90;;;;;;4919202;29;20556;-81
2023/03/18 10:34:08;;;;;;;5.07;4.10;;;27.20;99.90;;;;;;4915018;29;20480;-89
2023/03/18 10:36:46;;;;;;;3.30;3.20;;;27.80;99.90;;;;;;4923130;29;20942;-83
2023/03/18 10:39:18;;;;;;;4.07;3.90;;;28.30;99.90;;;;;;4923212;29;20458;-84
2023/03/18 10:41:49;;;;;;;3.67;3.47;;;28.70;99.90;;;;;;4909285;29;20952;-84
2023/03/18 10:44:22;;;;;;;2.83;2.73;;;29.10;99.90;;;;;;4928184;29;20476;-83
2023/03/18 10:47:00;;;;;;;3.70;3.33;;;29.40;99.90;;;;;;4929232;29;20456;-83
2023/03/18 10:49:32;;;;;;;2.73;2.53;;;29.30;99.90;;;;;;4930412;29;20484;-84
2023/03/18 10:52:07;;;;;;;3.40;3.20;;;30.20;99.90;;;;;;4927332;29;20814;-83
2023/03/18 10:54:41;;;;;;;3.07;2.87;;;31.70;99.90;;;;;;4928032;29;20485;-84
2023/03/18 10:57:14;;;;;;;3.03;2.83;;;32.70;99.90;;;;;;4924894;29;20508;-82
2023/03/18 10:59:44;;;;;;;2.67;2.53;;;32.40;99.90;;;;;;4920330;29;20476;-82
2023/03/18 11:02:18;;;;;;;3.00;2.90;;;32.30;99.90;;;;;;4920309;29;20488;-79
2023/03/18 11:04:53;;;;;;;2.87;2.77;;;33.10;99.90;;;;;;4920057;29;20457;-81
2023/03/18 11:07:24;;;;;;;3.10;2.90;;;33.90;99.90;;;;;;4919202;29;20461;-82
2023/03/18 11:09:54;;;;;;;3.00;2.80;;;33.60;99.90;;;;;;4922486;29;20471;-82
2023/03/18 11:12:27;;;;;;;2.93;2.73;;;34.10;99.90;;;;;;4920641;29;20549;-82
2023/03/18 11:14:56;;;;;;;3.27;2.97;;;34.60;99.90;;;;;;4918194;29;20850;-82
2023/03/18 11:17:29;;;;;;;2.50;2.30;;;34.90;99.90;;;;;;4918603;29;20920;-83
2023/03/18 11:20:06;;;;;;;2.87;2.70;;;35.00;99.90;;;;;;4912808;29;20453;-81
2023/03/18 11:22:36;;;;;;;2.30;2.20;;;34.70;99.90;;;;;;4914708;29;20484;-83
2023/03/18 11:25:15;;;;;;;2.70;2.57;;;35.10;99.90;;;;;;4915156;29;20464;-84
2023/03/18 11:27:45;;;;;;;1.97;1.87;;;34.40;99.90;;;;;;4917536;29;20460;-84
2023/03/18 11:30:18;;;;;;;2.53;2.30;;;35.10;99.90;;;;;;4916491;29;20468;-82
2023/03/18 11:33:05;;;;;;;2.63;2.13;;;35.00;99.90;;;;;;4916529;29;20600;-83
2023/03/18 11:35:43;;;;;;;2.43;2.30;;;33.10;99.90;;;;;;4917470;29;20483;-85
2023/03/18 11:38:16;;;;;;;2.47;2.37;;;30.30;99.90;;;;;;4915650;29;20485;-84
2023/03/18 11:40:45;;;;;;;2.17;2.03;;;28.30;99.90;;;;;;4911462;29;20476;-82
2023/03/18 11:43:19;;;;;;;2.30;2.20;;;26.80;99.90;;;;;;4918342;29;20493;-83
2023/03/18 11:45:54;;;;;;;3.13;2.90;;;25.50;97.90;;;;;;4917139;29;20463;-82
2023/03/18 11:48:30;;;;;;;3.10;2.90;;;24.30;88.80;;;;;;4906168;29;20460;-84
2023/03/18 11:51:12;;;;;;;4.57;2.60;;;23.60;79.30;;;;;;4918324;29;20461;-83
2023/03/18 11:53:52;;;;;;;2.60;2.50;;;23.00;70.10;;;;;;4922101;29;20477;-79
2023/03/18 11:56:29;;;;;;;3.07;2.87;;;22.60;65.30;;;;;;4919954;29;20457;-80
2023/03/18 11:59:22;;;;;;;2.70;2.50;;;22.40;61.80;;;;;;4916348;29;20511;-81
2023/03/18 12:02:04;;;;;;;2.33;2.23;;;22.40;63.30;;;;;;4915410;29;20475;-80
2023/03/18 12:05:01;;;;;;;3.87;2.10;;;22.40;62.20;;;;;;4914643;29;20895;-80
2023/03/18 12:07:48;;;;;;;2.03;1.93;;;22.20;58.70;;;;;;4915054;29;20539;-81
2023/03/18 12:10:25;;;;;;;2.60;2.47;;;21.90;55.90;;;;;;4921222;29;20475;-79
2023/03/18 12:13:15;;;;;;;2.70;2.57;;;22.00;56.20;;;;;;4913919;29;20492;-80
2023/03/18 12:15:51;;;;;;;2.60;2.40;;;21.90;57.20;;;;;;4915027;29;20544;-81
2023/03/18 12:18:38;;;;;;;2.53;2.33;;;21.90;57.20;;;;;;4913640;29;20547;-79
2023/03/18 12:21:35;;;;;;;2.53;2.40;;;21.80;55.60;;;;;;4913894;29;20457;-79
2023/03/18 12:24:16;;;;;;;2.70;2.50;;;21.70;53.90;;;;;;4914510;29;20479;-77
2023/03/18 12:26:51;;;;;;;2.57;2.47;;;21.90;56.80;;;;;;4900902;29;20501;-81
2023/03/18 12:29:50;;;;;;;2.87;2.70;;;21.90;55.80;;;;;;4897503;29;20586;-79
2023/03/18 12:32:27;;;;;;;2.33;2.23;;;21.80;55.40;;;;;;4916157;29;20468;-77
2023/03/18 12:35:08;;;;;;;2.67;2.50;;;21.70;54.10;;;;;;4914728;29;20499;-77
2023/03/18 12:37:49;;;;;;;2.50;2.30;;;21.60;51.60;;;;;;4913682;29;20559;-77
2023/03/18 12:40:37;;;;;;;2.53;2.33;;;21.50;50.80;;;;;;4916154;29;20454;-78
2023/03/18 12:43:24;;;;;;;2.00;1.90;;;21.50;51.10;;;;;;4913592;29;20551;-79
2023/03/18 12:46:00;;;;;;;2.43;2.20;;;21.40;49.40;;;;;;4916327;29;20463;-80
2023/03/18 12:48:32;;;;;;;2.27;2.07;;;21.50;51.10;;;;;;4912788;29;20481;-78
2023/03/18 12:51:14;;;;;;;2.30;2.20;;;21.50;51.20;;;;;;4914845;29;20462;-76
2023/03/18 12:53:45;;;;;;;3.33;2.60;;;21.70;53.70;;;;;;4917413;29;20695;-80
2023/03/18 12:56:18;;;;;;;2.90;1.90;;;21.70;53.60;;;;;;4914114;29;20476;-81
2023/03/18 12:58:51;;;;;;;1.87;1.77;;;21.80;54.20;;;;;;4921885;29;20476;-80
2023/03/18 13:01:24;;;;;;;3.40;1.90;;;21.80;53.80;;;;;;4923455;29;20962;-78
2023/03/18 13:03:57;;;;;;;2.10;2.00;;;21.70;52.40;;;;;;4922345;29;21023;-80
2023/03/18 13:06:30;;;;;;;2.03;1.93;;;21.60;50.60;;;;;;4921797;29;20459;-78
2023/03/18 13:09:05;;;;;;;2.03;1.93;;;21.50;49.50;;;;;;4924982;29;20455;-78